sensor_id;sensor_type;location;lat;lon;timestamp;temperature;humidity
59975;DHT22;62136;-35.664;-63.766;2022-10-13T00:00:48;25.20;35.80
59975;DHT22;62136;-35.664;-63.766;2022-10-13T00:03:16;25.20;35.90
59975;DHT22;62136;-35.664;-63.766;2022-10-13T00:05:45;25.20;35.90
59975;DHT22;62136;-35.664;-63.766;2022-10-13T00:08:15;25.20;35.90
59975;DHT22;62136;-35.664;-63.766;2022-10-13T00:10:46;25.20;36.10
59975;DHT22;62136;-35.664;-63.766;2022-10-13T00:13:14;25.20;36.00
59975;DHT22;62136;-35.664;-63.766;2022-10-13T00:15:43;25.10;36.00
59975;DHT22;62136;-35.664;-63.766;2022-10-13T00:18:11;25.10;36.00
59975;DHT22;62136;-35.664;-63.766;2022-10-13T00:20:43;25.10;36.00
59975;DHT22;62136;-35.664;-63.766;2022-10-13T00:23:10;25.10;36.00
59975;DHT22;62136;-35.664;-63.766;2022-10-13T00:25:44;25.10;36.10
59975;DHT22;62136;-35.664;-63.766;2022-10-13T00:28:12;25.00;36.00
59975;DHT22;62136;-35.664;-63.766;2022-10-13T00:30:40;25.10;36.10
59975;DHT22;62136;-35.664;-63.766;2022-10-13T00:33:08;25.00;36.00
59975;DHT22;62136;-35.664;-63.766;2022-10-13T00:35:47;25.00;35.90
59975;DHT22;62136;-35.664;-63.766;2022-10-13T00:38:16;25.00;35.90
59975;DHT22;62136;-35.664;-63.766;2022-10-13T00:40:45;25.00;36.00
59975;DHT22;62136;-35.664;-63.766;2022-10-13T00:43:29;25.00;36.00
59975;DHT22;62136;-35.664;-63.766;2022-10-13T00:46:04;25.00;36.30
59975;DHT22;62136;-35.664;-63.766;2022-10-13T00:48:31;24.90;35.90
59975;DHT22;62136;-35.664;-63.766;2022-10-13T00:50:58;24.90;35.80
59975;DHT22;62136;-35.664;-63.766;2022-10-13T00:53:31;24.90;35.80
59975;DHT22;62136;-35.664;-63.766;2022-10-13T00:56:00;24.90;35.90
59975;DHT22;62136;-35.664;-63.766;2022-10-13T00:58:28;24.90;35.90
59975;DHT22;62136;-35.664;-63.766;2022-10-13T01:00:57;24.90;35.90
59975;DHT22;62136;-35.664;-63.766;2022-10-13T01:03:26;24.80;35.90
59975;DHT22;62136;-35.664;-63.766;2022-10-13T01:05:57;24.80;35.90
59975;DHT22;62136;-35.664;-63.766;2022-10-13T01:08:25;24.80;35.90
59975;DHT22;62136;-35.664;-63.766;2022-10-13T01:30:51;24.70;36.00
59975;DHT22;62136;-35.664;-63.766;2022-10-13T01:33:41;24.70;36.00
59975;DHT22;62136;-35.664;-63.766;2022-10-13T01:42:07;24.60;35.90
59975;DHT22;62136;-35.664;-63.766;2022-10-13T01:44:42;24.60;36.00
59975;DHT22;62136;-35.664;-63.766;2022-10-13T01:47:14;24.60;36.00
59975;DHT22;62136;-35.664;-63.766;2022-10-13T01:49:42;24.60;36.10
59975;DHT22;62136;-35.664;-63.766;2022-10-13T01:52:14;24.60;36.00
59975;DHT22;62136;-35.664;-63.766;2022-10-13T01:54:46;24.50;36.00
59975;DHT22;62136;-35.664;-63.766;2022-10-13T01:57:45;24.50;35.90
59975;DHT22;62136;-35.664;-63.766;2022-10-13T02:00:13;24.50;35.80
59975;DHT22;62136;-35.664;-63.766;2022-10-13T02:03:08;24.50;35.90
59975;DHT22;62136;-35.664;-63.766;2022-10-13T02:05:47;24.50;35.90
59975;DHT22;62136;-35.664;-63.766;2022-10-13T02:08:30;24.50;35.80
59975;DHT22;62136;-35.664;-63.766;2022-10-13T02:13:36;24.50;35.80
59975;DHT22;62136;-35.664;-63.766;2022-10-13T02:16:05;24.50;35.70
59975;DHT22;62136;-35.664;-63.766;2022-10-13T02:18:33;24.50;35.70
59975;DHT22;62136;-35.664;-63.766;2022-10-13T02:21:03;24.50;35.60
59975;DHT22;62136;-35.664;-63.766;2022-10-13T02:23:33;24.50;35.60
59975;DHT22;62136;-35.664;-63.766;2022-10-13T02:26:03;24.50;35.60
59975;DHT22;62136;-35.664;-63.766;2022-10-13T02:28:30;24.50;35.60
59975;DHT22;62136;-35.664;-63.766;2022-10-13T02:30:58;24.50;35.50
59975;DHT22;62136;-35.664;-63.766;2022-10-13T02:33:25;24.40;35.30
59975;DHT22;62136;-35.664;-63.766;2022-10-13T02:35:52;24.40;35.30
59975;DHT22;62136;-35.664;-63.766;2022-10-13T02:38:19;24.40;35.20
59975;DHT22;62136;-35.664;-63.766;2022-10-13T02:40:46;24.40;35.20
59975;DHT22;62136;-35.664;-63.766;2022-10-13T02:43:16;24.40;35.10
59975;DHT22;62136;-35.664;-63.766;2022-10-13T02:45:43;24.40;35.00
59975;DHT22;62136;-35.664;-63.766;2022-10-13T02:48:10;24.40;35.00
59975;DHT22;62136;-35.664;-63.766;2022-10-13T02:50:37;24.40;34.90
59975;DHT22;62136;-35.664;-63.766;2022-10-13T02:53:04;24.40;34.90
59975;DHT22;62136;-35.664;-63.766;2022-10-13T02:55:31;24.40;34.90
59975;DHT22;62136;-35.664;-63.766;2022-10-13T02:57:58;24.30;34.70
59975;DHT22;62136;-35.664;-63.766;2022-10-13T03:00:28;24.30;34.70
59975;DHT22;62136;-35.664;-63.766;2022-10-13T03:02:55;24.30;34.60
59975;DHT22;62136;-35.664;-63.766;2022-10-13T03:05:22;24.30;34.50
59975;DHT22;62136;-35.664;-63.766;2022-10-13T03:07:49;24.30;34.50
59975;DHT22;62136;-35.664;-63.766;2022-10-13T03:10:16;24.30;34.50
59975;DHT22;62136;-35.664;-63.766;2022-10-13T03:54:22;23.80;33.90
59975;DHT22;62136;-35.664;-63.766;2022-10-13T03:56:50;23.80;33.90
59975;DHT22;62136;-35.664;-63.766;2022-10-13T03:59:17;23.70;33.90
59975;DHT22;62136;-35.664;-63.766;2022-10-13T04:01:45;23.70;33.90
59975;DHT22;62136;-35.664;-63.766;2022-10-13T04:04:12;23.60;34.30
59975;DHT22;62136;-35.664;-63.766;2022-10-13T04:06:39;23.60;33.80
59975;DHT22;62136;-35.664;-63.766;2022-10-13T04:09:06;23.60;33.80
59975;DHT22;62136;-35.664;-63.766;2022-10-13T04:11:33;23.50;33.80
59975;DHT22;62136;-35.664;-63.766;2022-10-13T04:14:00;23.60;33.80
59975;DHT22;62136;-35.664;-63.766;2022-10-13T04:16:29;23.50;33.70
59975;DHT22;62136;-35.664;-63.766;2022-10-13T04:19:02;23.50;33.80
59975;DHT22;62136;-35.664;-63.766;2022-10-13T04:21:31;23.40;33.60
59975;DHT22;62136;-35.664;-63.766;2022-10-13T04:24:02;23.40;33.60
59975;DHT22;62136;-35.664;-63.766;2022-10-13T04:26:31;23.40;33.70
59975;DHT22;62136;-35.664;-63.766;2022-10-13T04:29:01;23.40;33.70
59975;DHT22;62136;-35.664;-63.766;2022-10-13T04:31:29;23.40;33.60
59975;DHT22;62136;-35.664;-63.766;2022-10-13T04:33:56;23.30;33.50
59975;DHT22;62136;-35.664;-63.766;2022-10-13T04:36:24;23.30;33.50
59975;DHT22;62136;-35.664;-63.766;2022-10-13T04:38:52;23.30;33.60
59975;DHT22;62136;-35.664;-63.766;2022-10-13T04:41:19;23.30;33.50
59975;DHT22;62136;-35.664;-63.766;2022-10-13T04:43:48;23.20;33.40
59975;DHT22;62136;-35.664;-63.766;2022-10-13T04:46:18;23.30;33.50
59975;DHT22;62136;-35.664;-63.766;2022-10-13T04:48:46;23.20;33.40
59975;DHT22;62136;-35.664;-63.766;2022-10-13T04:51:24;23.20;33.40
59975;DHT22;62136;-35.664;-63.766;2022-10-13T04:56:23;23.10;33.40
59975;DHT22;62136;-35.664;-63.766;2022-10-13T04:58:50;23.10;33.40
59975;DHT22;62136;-35.664;-63.766;2022-10-13T05:01:23;23.10;33.30
59975;DHT22;62136;-35.664;-63.766;2022-10-13T05:04:02;23.10;33.30
59975;DHT22;62136;-35.664;-63.766;2022-10-13T05:06:35;23.10;33.30
59975;DHT22;62136;-35.664;-63.766;2022-10-13T05:09:06;23.00;33.20
59975;DHT22;62136;-35.664;-63.766;2022-10-13T05:11:36;23.00;33.30
59975;DHT22;62136;-35.664;-63.766;2022-10-13T05:14:06;23.00;33.30
59975;DHT22;62136;-35.664;-63.766;2022-10-13T05:16:33;23.00;33.20
59975;DHT22;62136;-35.664;-63.766;2022-10-13T05:19:00;22.90;33.30
59975;DHT22;62136;-35.664;-63.766;2022-10-13T05:21:28;22.90;33.30
59975;DHT22;62136;-35.664;-63.766;2022-10-13T05:23:56;22.90;33.30
59975;DHT22;62136;-35.664;-63.766;2022-10-13T05:26:26;22.90;33.40
59975;DHT22;62136;-35.664;-63.766;2022-10-13T05:28:58;22.90;33.40
59975;DHT22;62136;-35.664;-63.766;2022-10-13T05:31:27;22.80;33.30
59975;DHT22;62136;-35.664;-63.766;2022-10-13T05:33:55;22.80;33.40
59975;DHT22;62136;-35.664;-63.766;2022-10-13T05:36:27;22.80;33.40
59975;DHT22;62136;-35.664;-63.766;2022-10-13T05:39:00;22.70;33.30
59975;DHT22;62136;-35.664;-63.766;2022-10-13T05:41:28;22.80;33.40
59975;DHT22;62136;-35.664;-63.766;2022-10-13T05:44:00;22.70;33.40
59975;DHT22;62136;-35.664;-63.766;2022-10-13T05:46:27;22.70;33.40
59975;DHT22;62136;-35.664;-63.766;2022-10-13T05:48:54;22.70;33.40
59975;DHT22;62136;-35.664;-63.766;2022-10-13T05:51:27;22.60;33.30
59975;DHT22;62136;-35.664;-63.766;2022-10-13T05:54:00;22.70;33.70
59975;DHT22;62136;-35.664;-63.766;2022-10-13T05:56:32;22.60;33.40
59975;DHT22;62136;-35.664;-63.766;2022-10-13T05:59:06;22.50;33.40
59975;DHT22;62136;-35.664;-63.766;2022-10-13T06:01:37;22.50;33.40
59975;DHT22;62136;-35.664;-63.766;2022-10-13T06:04:09;22.50;33.40
59975;DHT22;62136;-35.664;-63.766;2022-10-13T06:06:38;22.50;33.40
59975;DHT22;62136;-35.664;-63.766;2022-10-13T06:09:05;22.50;33.40
59975;DHT22;62136;-35.664;-63.766;2022-10-13T06:11:32;22.50;33.50
59975;DHT22;62136;-35.664;-63.766;2022-10-13T06:13:59;22.40;33.40
59975;DHT22;62136;-35.664;-63.766;2022-10-13T06:16:26;22.40;33.40
59975;DHT22;62136;-35.664;-63.766;2022-10-13T06:18:53;22.40;33.40
59975;DHT22;62136;-35.664;-63.766;2022-10-13T06:21:20;22.40;33.40
59975;DHT22;62136;-35.664;-63.766;2022-10-13T06:23:47;22.40;33.40
59975;DHT22;62136;-35.664;-63.766;2022-10-13T06:26:15;22.30;33.30
59975;DHT22;62136;-35.664;-63.766;2022-10-13T06:28:42;22.30;33.30
59975;DHT22;62136;-35.664;-63.766;2022-10-13T06:31:09;22.30;33.40
59975;DHT22;62136;-35.664;-63.766;2022-10-13T06:33:36;22.20;33.30
59975;DHT22;62136;-35.664;-63.766;2022-10-13T06:36:04;22.30;33.30
59975;DHT22;62136;-35.664;-63.766;2022-10-13T06:38:32;22.20;33.30
59975;DHT22;62136;-35.664;-63.766;2022-10-13T06:41:03;22.20;33.30
59975;DHT22;62136;-35.664;-63.766;2022-10-13T06:43:31;22.20;33.40
59975;DHT22;62136;-35.664;-63.766;2022-10-13T06:45:59;22.20;33.40
59975;DHT22;62136;-35.664;-63.766;2022-10-13T06:48:27;22.20;33.40
59975;DHT22;62136;-35.664;-63.766;2022-10-13T06:50:54;22.10;33.30
59975;DHT22;62136;-35.664;-63.766;2022-10-13T06:53:21;22.10;33.30
59975;DHT22;62136;-35.664;-63.766;2022-10-13T06:55:48;22.10;33.30
59975;DHT22;62136;-35.664;-63.766;2022-10-13T06:58:15;22.10;33.40
59975;DHT22;62136;-35.664;-63.766;2022-10-13T07:00:42;22.00;33.30
59975;DHT22;62136;-35.664;-63.766;2022-10-13T07:03:10;22.00;33.30
59975;DHT22;62136;-35.664;-63.766;2022-10-13T07:05:37;22.00;33.30
59975;DHT22;62136;-35.664;-63.766;2022-10-13T07:08:04;22.00;33.40
59975;DHT22;62136;-35.664;-63.766;2022-10-13T07:10:32;21.90;33.30
59975;DHT22;62136;-35.664;-63.766;2022-10-13T07:12:59;21.90;33.40
59975;DHT22;62136;-35.664;-63.766;2022-10-13T07:15:26;21.80;33.40
59975;DHT22;62136;-35.664;-63.766;2022-10-13T07:17:53;21.80;33.40
59975;DHT22;62136;-35.664;-63.766;2022-10-13T07:20:22;21.80;33.40
59975;DHT22;62136;-35.664;-63.766;2022-10-13T07:22:52;21.80;33.40
59975;DHT22;62136;-35.664;-63.766;2022-10-13T07:25:19;21.80;33.50
59975;DHT22;62136;-35.664;-63.766;2022-10-13T07:27:46;21.70;33.40
59975;DHT22;62136;-35.664;-63.766;2022-10-13T07:30:14;21.70;33.40
59975;DHT22;62136;-35.664;-63.766;2022-10-13T07:32:41;21.60;33.40
59975;DHT22;62136;-35.664;-63.766;2022-10-13T07:35:09;21.60;33.50
59975;DHT22;62136;-35.664;-63.766;2022-10-13T07:37:37;21.60;33.50
59975;DHT22;62136;-35.664;-63.766;2022-10-13T07:40:06;21.60;33.50
59975;DHT22;62136;-35.664;-63.766;2022-10-13T07:42:33;21.60;33.50
59975;DHT22;62136;-35.664;-63.766;2022-10-13T07:45:00;21.50;33.50
59975;DHT22;62136;-35.664;-63.766;2022-10-13T07:47:28;21.50;33.60
59975;DHT22;62136;-35.664;-63.766;2022-10-13T07:49:55;21.50;33.50
59975;DHT22;62136;-35.664;-63.766;2022-10-13T07:52:22;21.50;33.60
59975;DHT22;62136;-35.664;-63.766;2022-10-13T07:54:50;21.40;33.60
59975;DHT22;62136;-35.664;-63.766;2022-10-13T07:57:17;21.40;33.60
59975;DHT22;62136;-35.664;-63.766;2022-10-13T07:59:44;21.40;33.70
59975;DHT22;62136;-35.664;-63.766;2022-10-13T08:02:11;21.40;33.80
59975;DHT22;62136;-35.664;-63.766;2022-10-13T08:04:38;21.30;33.60
59975;DHT22;62136;-35.664;-63.766;2022-10-13T08:07:05;21.30;33.70
59975;DHT22;62136;-35.664;-63.766;2022-10-13T08:09:33;21.30;33.80
59975;DHT22;62136;-35.664;-63.766;2022-10-13T08:12:00;21.20;33.70
59975;DHT22;62136;-35.664;-63.766;2022-10-13T08:14:28;21.20;33.70
59975;DHT22;62136;-35.664;-63.766;2022-10-13T08:16:56;21.20;33.80
59975;DHT22;62136;-35.664;-63.766;2022-10-13T08:19:24;21.20;33.80
59975;DHT22;62136;-35.664;-63.766;2022-10-13T08:21:52;21.20;33.80
59975;DHT22;62136;-35.664;-63.766;2022-10-13T08:24:20;21.10;33.80
59975;DHT22;62136;-35.664;-63.766;2022-10-13T08:26:50;21.10;33.80
59975;DHT22;62136;-35.664;-63.766;2022-10-13T08:29:17;21.10;33.90
59975;DHT22;62136;-35.664;-63.766;2022-10-13T08:31:44;21.10;33.90
59975;DHT22;62136;-35.664;-63.766;2022-10-13T08:34:11;21.00;33.90
59975;DHT22;62136;-35.664;-63.766;2022-10-13T08:36:39;21.00;33.90
59975;DHT22;62136;-35.664;-63.766;2022-10-13T08:39:06;21.00;33.90
59975;DHT22;62136;-35.664;-63.766;2022-10-13T08:41:39;20.90;33.90
59975;DHT22;62136;-35.664;-63.766;2022-10-13T08:44:18;20.90;33.80
59975;DHT22;62136;-35.664;-63.766;2022-10-13T08:47:01;20.90;33.90
59975;DHT22;62136;-35.664;-63.766;2022-10-13T08:49:31;20.90;33.90
59975;DHT22;62136;-35.664;-63.766;2022-10-13T08:51:58;20.80;34.00
59975;DHT22;62136;-35.664;-63.766;2022-10-13T08:54:28;20.80;34.00
59975;DHT22;62136;-35.664;-63.766;2022-10-13T08:56:55;20.80;34.00
59975;DHT22;62136;-35.664;-63.766;2022-10-13T08:59:22;20.80;34.00
59975;DHT22;62136;-35.664;-63.766;2022-10-13T09:01:52;20.80;34.50
59975;DHT22;62136;-35.664;-63.766;2022-10-13T09:04:35;20.70;34.00
59975;DHT22;62136;-35.664;-63.766;2022-10-13T09:07:13;20.70;34.00
59975;DHT22;62136;-35.664;-63.766;2022-10-13T09:09:41;20.70;34.10
59975;DHT22;62136;-35.664;-63.766;2022-10-13T09:12:11;20.60;34.00
59975;DHT22;62136;-35.664;-63.766;2022-10-13T09:14:39;20.70;34.10
59975;DHT22;62136;-35.664;-63.766;2022-10-13T09:17:22;20.60;34.00
59975;DHT22;62136;-35.664;-63.766;2022-10-13T09:23:01;20.60;34.00
59975;DHT22;62136;-35.664;-63.766;2022-10-13T09:28:00;20.50;34.10
59975;DHT22;62136;-35.664;-63.766;2022-10-13T09:30:39;20.50;34.10
59975;DHT22;62136;-35.664;-63.766;2022-10-13T09:35:44;20.50;34.10
59975;DHT22;62136;-35.664;-63.766;2022-10-13T09:38:20;20.40;34.20
59975;DHT22;62136;-35.664;-63.766;2022-10-13T09:41:11;20.40;34.10
59975;DHT22;62136;-35.664;-63.766;2022-10-13T09:48:50;20.30;34.10
59975;DHT22;62136;-35.664;-63.766;2022-10-13T09:51:42;20.30;34.10
59975;DHT22;62136;-35.664;-63.766;2022-10-13T09:54:46;20.20;34.20
59975;DHT22;62136;-35.664;-63.766;2022-10-13T09:59:50;20.20;34.20
59975;DHT22;62136;-35.664;-63.766;2022-10-13T10:04:58;20.20;34.20
59975;DHT22;62136;-35.664;-63.766;2022-10-13T10:07:29;20.10;34.10
59975;DHT22;62136;-35.664;-63.766;2022-10-13T10:10:04;20.10;34.10
59975;DHT22;62136;-35.664;-63.766;2022-10-13T10:12:34;20.10;34.10
59975;DHT22;62136;-35.664;-63.766;2022-10-13T10:15:13;20.10;34.20
59975;DHT22;62136;-35.664;-63.766;2022-10-13T10:17:50;20.10;34.20
59975;DHT22;62136;-35.664;-63.766;2022-10-13T10:21:01;20.10;34.20
59975;DHT22;62136;-35.664;-63.766;2022-10-13T10:26:43;20.10;34.20
59975;DHT22;62136;-35.664;-63.766;2022-10-13T10:35:11;20.00;34.10
59975;DHT22;62136;-35.664;-63.766;2022-10-13T10:38:08;20.00;34.10
59975;DHT22;62136;-35.664;-63.766;2022-10-13T10:41:12;20.10;34.10
59975;DHT22;62136;-35.664;-63.766;2022-10-13T10:46:30;20.00;33.90
59975;DHT22;62136;-35.664;-63.766;2022-10-13T10:49:35;20.00;33.90
59975;DHT22;62136;-35.664;-63.766;2022-10-13T10:52:05;20.00;33.90
59975;DHT22;62136;-35.664;-63.766;2022-10-13T10:54:58;20.10;33.90
59975;DHT22;62136;-35.664;-63.766;2022-10-13T11:00:23;20.10;33.90
59975;DHT22;62136;-35.664;-63.766;2022-10-13T11:08:40;20.10;33.80
59975;DHT22;62136;-35.664;-63.766;2022-10-13T11:16:32;20.10;33.80
59975;DHT22;62136;-35.664;-63.766;2022-10-13T11:19:11;20.10;33.70
59975;DHT22;62136;-35.664;-63.766;2022-10-13T11:27:58;20.10;32.40
59975;DHT22;62136;-35.664;-63.766;2022-10-13T11:30:41;20.10;32.00
59975;DHT22;62136;-35.664;-63.766;2022-10-13T11:33:33;20.00;32.40
59975;DHT22;62136;-35.664;-63.766;2022-10-13T11:36:29;20.10;32.50
59975;DHT22;62136;-35.664;-63.766;2022-10-13T11:44:53;20.10;33.20
59975;DHT22;62136;-35.664;-63.766;2022-10-13T11:53:12;20.20;34.40
59975;DHT22;62136;-35.664;-63.766;2022-10-13T11:55:48;20.20;34.70
59975;DHT22;62136;-35.664;-63.766;2022-10-13T11:58:17;20.20;35.20
59975;DHT22;62136;-35.664;-63.766;2022-10-13T12:00:59;20.30;35.50
59975;DHT22;62136;-35.664;-63.766;2022-10-13T12:03:31;20.30;35.70
59975;DHT22;62136;-35.664;-63.766;2022-10-13T12:06:04;20.40;36.20
59975;DHT22;62136;-35.664;-63.766;2022-10-13T12:08:34;20.40;35.30
59975;DHT22;62136;-35.664;-63.766;2022-10-13T12:11:03;20.50;35.60
59975;DHT22;62136;-35.664;-63.766;2022-10-13T12:13:33;20.60;36.10
59975;DHT22;62136;-35.664;-63.766;2022-10-13T12:16:04;20.60;36.40
59975;DHT22;62136;-35.664;-63.766;2022-10-13T12:18:37;20.60;36.70
59975;DHT22;62136;-35.664;-63.766;2022-10-13T12:21:17;20.70;36.90
59975;DHT22;62136;-35.664;-63.766;2022-10-13T12:23:47;20.70;36.90
59975;DHT22;62136;-35.664;-63.766;2022-10-13T12:26:22;20.80;37.30
59975;DHT22;62136;-35.664;-63.766;2022-10-13T12:29:00;20.80;36.80
59975;DHT22;62136;-35.664;-63.766;2022-10-13T12:31:36;20.80;37.20
59975;DHT22;62136;-35.664;-63.766;2022-10-13T12:34:12;20.90;35.10
59975;DHT22;62136;-35.664;-63.766;2022-10-13T12:36:57;21.00;35.40
59975;DHT22;62136;-35.664;-63.766;2022-10-13T12:39:27;21.00;33.80
59975;DHT22;62136;-35.664;-63.766;2022-10-13T12:41:55;21.00;34.10
59975;DHT22;62136;-35.664;-63.766;2022-10-13T12:57:32;21.20;36.00
59975;DHT22;62136;-35.664;-63.766;2022-10-13T13:00:44;21.30;35.90
59975;DHT22;62136;-35.664;-63.766;2022-10-13T13:08:21;21.40;36.90
59975;DHT22;62136;-35.664;-63.766;2022-10-13T13:10:59;21.40;37.50
59975;DHT22;62136;-35.664;-63.766;2022-10-13T13:13:27;21.50;37.80
59975;DHT22;62136;-35.664;-63.766;2022-10-13T13:16:16;21.50;36.90
59975;DHT22;62136;-35.664;-63.766;2022-10-13T13:18:47;21.50;36.10
59975;DHT22;62136;-35.664;-63.766;2022-10-13T13:21:17;21.60;35.60
59975;DHT22;62136;-35.664;-63.766;2022-10-13T13:23:46;21.60;36.30
59975;DHT22;62136;-35.664;-63.766;2022-10-13T13:26:19;21.70;36.20
59975;DHT22;62136;-35.664;-63.766;2022-10-13T13:28:54;21.70;36.40
59975;DHT22;62136;-35.664;-63.766;2022-10-13T13:31:24;21.70;36.50
59975;DHT22;62136;-35.664;-63.766;2022-10-13T13:33:51;21.80;36.70
59975;DHT22;62136;-35.664;-63.766;2022-10-13T13:36:25;21.80;36.80
59975;DHT22;62136;-35.664;-63.766;2022-10-13T13:38:53;21.80;36.70
59975;DHT22;62136;-35.664;-63.766;2022-10-13T13:41:20;21.80;36.80
59975;DHT22;62136;-35.664;-63.766;2022-10-13T13:43:49;21.90;36.50
59975;DHT22;62136;-35.664;-63.766;2022-10-13T13:46:24;22.00;36.50
59975;DHT22;62136;-35.664;-63.766;2022-10-13T13:48:53;21.90;36.00
59975;DHT22;62136;-35.664;-63.766;2022-10-13T13:51:20;22.00;35.60
59975;DHT22;62136;-35.664;-63.766;2022-10-13T13:53:50;22.10;35.30
59975;DHT22;62136;-35.664;-63.766;2022-10-13T13:56:18;22.10;35.10
59975;DHT22;62136;-35.664;-63.766;2022-10-13T13:58:47;22.00;34.50
59975;DHT22;62136;-35.664;-63.766;2022-10-13T14:01:14;22.00;34.30
59975;DHT22;62136;-35.664;-63.766;2022-10-13T14:03:43;22.00;34.00
59975;DHT22;62136;-35.664;-63.766;2022-10-13T14:06:20;22.10;33.60
59975;DHT22;62136;-35.664;-63.766;2022-10-13T14:08:48;22.00;33.20
59975;DHT22;62136;-35.664;-63.766;2022-10-13T14:11:15;22.10;33.10
59975;DHT22;62136;-35.664;-63.766;2022-10-13T14:13:42;22.00;32.90
59975;DHT22;62136;-35.664;-63.766;2022-10-13T14:16:13;22.10;32.90
59975;DHT22;62136;-35.664;-63.766;2022-10-13T14:18:41;22.00;32.00
59975;DHT22;62136;-35.664;-63.766;2022-10-13T14:21:08;22.00;32.00
59975;DHT22;62136;-35.664;-63.766;2022-10-13T14:23:35;22.00;31.10
59975;DHT22;62136;-35.664;-63.766;2022-10-13T14:26:05;22.00;31.10
59975;DHT22;62136;-35.664;-63.766;2022-10-13T14:28:33;22.10;31.00
59975;DHT22;62136;-35.664;-63.766;2022-10-13T14:31:04;22.00;30.70
59975;DHT22;62136;-35.664;-63.766;2022-10-13T14:33:31;22.00;30.40
59975;DHT22;62136;-35.664;-63.766;2022-10-13T14:36:00;22.00;29.90
59975;DHT22;62136;-35.664;-63.766;2022-10-13T14:38:27;22.10;30.40
59975;DHT22;62136;-35.664;-63.766;2022-10-13T14:41:03;22.10;29.70
59975;DHT22;62136;-35.664;-63.766;2022-10-13T14:43:31;22.10;29.40
59975;DHT22;62136;-35.664;-63.766;2022-10-13T14:46:03;22.10;29.70
59975;DHT22;62136;-35.664;-63.766;2022-10-13T14:48:33;22.10;30.00
59975;DHT22;62136;-35.664;-63.766;2022-10-13T14:51:10;22.20;29.10
59975;DHT22;62136;-35.664;-63.766;2022-10-13T14:53:40;22.20;29.50
59975;DHT22;62136;-35.664;-63.766;2022-10-13T14:58:43;22.20;29.20
59975;DHT22;62136;-35.664;-63.766;2022-10-13T15:01:10;22.30;29.30
59975;DHT22;62136;-35.664;-63.766;2022-10-13T15:03:38;22.30;29.00
59975;DHT22;62136;-35.664;-63.766;2022-10-13T15:06:05;22.30;28.80
59975;DHT22;62136;-35.664;-63.766;2022-10-13T15:08:33;22.30;28.80
59975;DHT22;62136;-35.664;-63.766;2022-10-13T15:11:01;22.30;29.00
59975;DHT22;62136;-35.664;-63.766;2022-10-13T15:13:29;22.30;29.20
59975;DHT22;62136;-35.664;-63.766;2022-10-13T15:15:57;22.30;28.60
59975;DHT22;62136;-35.664;-63.766;2022-10-13T15:18:27;22.30;28.50
59975;DHT22;62136;-35.664;-63.766;2022-10-13T15:20:54;22.40;28.70
59975;DHT22;62136;-35.664;-63.766;2022-10-13T15:23:22;22.40;28.80
59975;DHT22;62136;-35.664;-63.766;2022-10-13T15:26:00;22.40;28.40
59975;DHT22;62136;-35.664;-63.766;2022-10-13T15:28:30;22.40;28.20
59975;DHT22;62136;-35.664;-63.766;2022-10-13T15:30:59;22.40;28.70
59975;DHT22;62136;-35.664;-63.766;2022-10-13T15:33:26;22.50;28.70
59975;DHT22;62136;-35.664;-63.766;2022-10-13T15:35:55;22.50;28.70
59975;DHT22;62136;-35.664;-63.766;2022-10-13T15:38:23;22.50;29.20
59975;DHT22;62136;-35.664;-63.766;2022-10-13T15:40:50;22.50;29.10
59975;DHT22;62136;-35.664;-63.766;2022-10-13T15:43:18;22.60;29.10
59975;DHT22;62136;-35.664;-63.766;2022-10-13T15:45:58;22.60;29.10
59975;DHT22;62136;-35.664;-63.766;2022-10-13T15:48:26;22.60;29.10
59975;DHT22;62136;-35.664;-63.766;2022-10-13T15:50:53;22.70;29.00
59975;DHT22;62136;-35.664;-63.766;2022-10-13T15:53:21;22.70;29.00
59975;DHT22;62136;-35.664;-63.766;2022-10-13T15:55:48;22.70;29.00
59975;DHT22;62136;-35.664;-63.766;2022-10-13T15:58:16;22.70;29.00
59975;DHT22;62136;-35.664;-63.766;2022-10-13T16:00:44;22.80;29.30
59975;DHT22;62136;-35.664;-63.766;2022-10-13T16:03:16;22.80;29.10
59975;DHT22;62136;-35.664;-63.766;2022-10-13T16:05:46;22.80;29.20
59975;DHT22;62136;-35.664;-63.766;2022-10-13T16:08:15;22.80;29.20
59975;DHT22;62136;-35.664;-63.766;2022-10-13T16:10:42;22.90;29.30
59975;DHT22;62136;-35.664;-63.766;2022-10-13T16:13:12;22.90;29.40
59975;DHT22;62136;-35.664;-63.766;2022-10-13T16:15:41;22.90;30.00
59975;DHT22;62136;-35.664;-63.766;2022-10-13T16:18:08;23.00;29.30
59975;DHT22;62136;-35.664;-63.766;2022-10-13T16:20:35;23.00;29.10
59975;DHT22;62136;-35.664;-63.766;2022-10-13T16:23:04;23.00;29.10
59975;DHT22;62136;-35.664;-63.766;2022-10-13T16:25:31;23.00;29.00
59975;DHT22;62136;-35.664;-63.766;2022-10-13T16:27:59;23.10;29.20
59975;DHT22;62136;-35.664;-63.766;2022-10-13T16:30:26;23.10;29.50
59975;DHT22;62136;-35.664;-63.766;2022-10-13T16:32:55;23.00;29.30
59975;DHT22;62136;-35.664;-63.766;2022-10-13T16:35:23;23.10;29.00
59975;DHT22;62136;-35.664;-63.766;2022-10-13T16:37:50;23.10;28.90
59975;DHT22;62136;-35.664;-63.766;2022-10-13T16:40:21;23.10;28.70
59975;DHT22;62136;-35.664;-63.766;2022-10-13T16:42:48;23.10;28.70
59975;DHT22;62136;-35.664;-63.766;2022-10-13T16:45:15;23.10;28.50
59975;DHT22;62136;-35.664;-63.766;2022-10-13T16:47:42;23.10;28.40
59975;DHT22;62136;-35.664;-63.766;2022-10-13T16:50:09;23.20;28.40
59975;DHT22;62136;-35.664;-63.766;2022-10-13T16:52:37;23.10;28.10
59975;DHT22;62136;-35.664;-63.766;2022-10-13T16:55:05;23.10;27.90
59975;DHT22;62136;-35.664;-63.766;2022-10-13T16:57:32;23.10;28.00
59975;DHT22;62136;-35.664;-63.766;2022-10-13T16:59:59;23.10;27.90
59975;DHT22;62136;-35.664;-63.766;2022-10-13T17:02:26;23.20;28.10
59975;DHT22;62136;-35.664;-63.766;2022-10-13T17:04:57;23.20;28.20
59975;DHT22;62136;-35.664;-63.766;2022-10-13T17:07:24;23.20;28.10
59975;DHT22;62136;-35.664;-63.766;2022-10-13T17:09:51;23.20;27.90
59975;DHT22;62136;-35.664;-63.766;2022-10-13T17:12:18;23.20;27.90
59975;DHT22;62136;-35.664;-63.766;2022-10-13T17:14:49;23.20;27.70
59975;DHT22;62136;-35.664;-63.766;2022-10-13T17:17:16;23.20;27.60
59975;DHT22;62136;-35.664;-63.766;2022-10-13T17:19:43;23.20;27.50
59975;DHT22;62136;-35.664;-63.766;2022-10-13T17:22:10;23.20;27.40
59975;DHT22;62136;-35.664;-63.766;2022-10-13T17:24:37;23.20;27.30
59975;DHT22;62136;-35.664;-63.766;2022-10-13T17:27:09;23.20;27.20
59975;DHT22;62136;-35.664;-63.766;2022-10-13T17:29:36;23.20;26.90
59975;DHT22;62136;-35.664;-63.766;2022-10-13T17:32:03;23.20;27.00
59975;DHT22;62136;-35.664;-63.766;2022-10-13T17:34:30;23.20;26.80
59975;DHT22;62136;-35.664;-63.766;2022-10-13T17:36:57;23.20;26.80
59975;DHT22;62136;-35.664;-63.766;2022-10-13T17:39:24;23.20;26.80
59975;DHT22;62136;-35.664;-63.766;2022-10-13T17:41:51;23.20;27.10
59975;DHT22;62136;-35.664;-63.766;2022-10-13T17:44:19;23.20;26.60